Map

Track Data

SID SEASON NUMBER BASIN SUBBASIN NAME ISO_TIME NATURE LAT LON WMO_WIND WMO_PRES WMO_AGENCY TRACK_TYPE DIST2LAND LANDFALL IFLAG USA_AGENCY USA_ATCF_ID USA_LAT USA_LON USA_RECORD USA_STATUS USA_WIND USA_PRES USA_SSHS USA_R34_NE USA_R34_SE USA_R34_SW USA_R34_NW USA_R50_NE USA_R50_SE USA_R50_SW USA_R50_NW USA_R64_NE USA_R64_SE USA_R64_SW USA_R64_NW USA_POCI USA_ROCI USA_RMW USA_EYE TOKYO_LAT TOKYO_LON TOKYO_GRADE TOKYO_WIND TOKYO_PRES TOKYO_R50_DIR TOKYO_R50_LONG TOKYO_R50_SHORT TOKYO_R30_DIR TOKYO_R30_LONG TOKYO_R30_SHORT TOKYO_LAND CMA_LAT CMA_LON CMA_CAT CMA_WIND CMA_PRES HKO_LAT HKO_LON HKO_CAT HKO_WIND HKO_PRES NEWDELHI_LAT NEWDELHI_LON NEWDELHI_GRADE NEWDELHI_WIND NEWDELHI_PRES NEWDELHI_CI NEWDELHI_DP NEWDELHI_POCI REUNION_LAT REUNION_LON REUNION_TYPE REUNION_WIND REUNION_PRES REUNION_TNUM REUNION_CI REUNION_RMW REUNION_R34_NE REUNION_R34_SE REUNION_R34_SW REUNION_R34_NW REUNION_R50_NE REUNION_R50_SE REUNION_R50_SW REUNION_R50_NW REUNION_R64_NE REUNION_R64_SE REUNION_R64_SW REUNION_R64_NW BOM_LAT BOM_LON BOM_TYPE BOM_WIND BOM_PRES BOM_TNUM BOM_CI BOM_RMW BOM_R34_NE BOM_R34_SE BOM_R34_SW BOM_R34_NW BOM_R50_NE BOM_R50_SE BOM_R50_SW BOM_R50_NW BOM_R64_NE BOM_R64_SE BOM_R64_SW BOM_R64_NW BOM_ROCI BOM_POCI BOM_EYE BOM_POS_METHOD BOM_PRES_METHOD NADI_LAT NADI_LON NADI_CAT NADI_WIND NADI_PRES WELLINGTON_LAT WELLINGTON_LON WELLINGTON_WIND WELLINGTON_PRES DS824_LAT DS824_LON DS824_STAGE DS824_WIND DS824_PRES TD9636_LAT TD9636_LON TD9636_STAGE TD9636_WIND TD9636_PRES TD9635_LAT TD9635_LON TD9635_WIND TD9635_PRES TD9635_ROCI NEUMANN_LAT NEUMANN_LON NEUMANN_CLASS NEUMANN_WIND NEUMANN_PRES MLC_LAT MLC_LON MLC_CLASS MLC_WIND MLC_PRES USA_GUST BOM_GUST BOM_GUST_PER REUNION_GUST REUNION_GUST_PER USA_SEAHGT USA_SEARAD_NE USA_SEARAD_SE USA_SEARAD_SW USA_SEARAD_NW STORM_SPEED STORM_DIR
1932292N26318 1932 65 NA NA NOT_NAMED 1932-10-18 00:00:00 TS 25.5000 -42.0000 35 hurdat_atl main 2511 2459 O_____________ hurdat_atl AL131932 25.5000 -42.0000 TS 35 0 18 345
1932292N26318 1932 65 NA NA NOT_NAMED 1932-10-18 03:00:00 TS 26.3451 -42.2493 main 2459 2354 P_____________ AL131932 26.3451 -42.2493 TS 37 0 18 345
1932292N26318 1932 65 NA NA NOT_NAMED 1932-10-18 06:00:00 TS 27.2000 -42.5000 40 hurdat_atl main 2354 2264 O_____________ hurdat_atl AL131932 27.2000 -42.5000 TS 40 0 18 346
1932292N26318 1932 65 NA NA NOT_NAMED 1932-10-18 09:00:00 TS 28.0775 -42.7505 main 2250 2160 P_____________ AL131932 28.0775 -42.7505 TS 42 0 19 346
1932292N26318 1932 65 NA NA NOT_NAMED 1932-10-18 12:00:00 TS 29.0000 -43.0000 45 hurdat_atl main 2149 2035 O_____________ hurdat_atl AL131932 29.0000 -43.0000 TS 45 0 20 347
1932292N26318 1932 65 NA NA NOT_NAMED 1932-10-18 15:00:00 TS 30.0151 -43.2793 main 2035 1935 P_____________ AL131932 30.0151 -43.2793 TS 47 0 21 348
1932292N26318 1932 65 NA NA NOT_NAMED 1932-10-18 18:00:00 TS 31.0000 -43.5000 50 hurdat_atl main 1924 1839 O_____________ hurdat_atl AL131932 31.0000 -43.5000 TS 50 0 19 351
1932292N26318 1932 65 NA NA NOT_NAMED 1932-10-18 21:00:00 TS 31.8448 -43.6029 main 1839 1757 P_____________ AL131932 31.8448 -43.6029 TS 52 0 16 357
1932292N26318 1932 65 NA NA NOT_NAMED 1932-10-19 00:00:00 TS 32.6000 -43.6000 55 hurdat_atl main 1757 1691 O_____________ hurdat_atl AL131932 32.6000 -43.6000 TS 55 0 15 2
1932292N26318 1932 65 NA NA NOT_NAMED 1932-10-19 03:00:00 TS 33.3449 -43.5377 main 1691 1625 P_____________ AL131932 33.3449 -43.5377 TS 57 0 14 7
1932292N26318 1932 65 NA NA NOT_NAMED 1932-10-19 06:00:00 TS 34.0000 -43.4000 60 hurdat_atl main 1625 1580 O_____________ hurdat_atl AL131932 34.0000 -43.4000 TS 60 0 13 11
1932292N26318 1932 65 NA NA NOT_NAMED 1932-10-19 09:00:00 TS 34.5673 -43.2448 main 1575 1545 P_____________ AL131932 34.5673 -43.2448 TS 60 0 11 18
1932292N26318 1932 65 NA NA NOT_NAMED 1932-10-19 12:00:00 TS 35.0000 -43.0000 60 hurdat_atl main 1545 1531 O_____________ hurdat_atl AL131932 35.0000 -43.0000 TS 60 0 9 33
1932292N26318 1932 65 NA NA NOT_NAMED 1932-10-19 15:00:00 TS 35.3097 -42.6599 main 1531 1526 P_____________ AL131932 35.3097 -42.6599 TS 57 0 8 53
1932292N26318 1932 65 NA NA NOT_NAMED 1932-10-19 18:00:00 TS 35.5000 -42.2000 55 hurdat_atl main 1536 1536 O_____________ hurdat_atl AL131932 35.5000 -42.2000 TS 55 0 9 69
1932292N26318 1932 65 NA NA NOT_NAMED 1932-10-19 21:00:00 TS 35.6224 -41.6445 main 1557 1557 P_____________ AL131932 35.6224 -41.6445 TS 52 0 10 78
1932292N26318 1932 65 NA NA NOT_NAMED 1932-10-20 00:00:00 TS 35.7000 -41.0000 50 hurdat_atl main 1579 1579 O_____________ hurdat_atl AL131932 35.7000 -41.0000 TS 50 0 11 80
1932292N26318 1932 65 NA NA NOT_NAMED 1932-10-20 03:00:00 TS 35.8071 -40.3300 main 1608 1608 P_____________ AL131932 35.8071 -40.3300 TS 47 0 12 80
1932292N26318 1932 65 NA NA NOT_NAMED 1932-10-20 06:00:00 TS 35.9000 -39.6000 45 hurdat_atl main 1638 1638 O_____________ hurdat_atl AL131932 35.9000 -39.6000 TS 45 0 12 82
1932292N26318 1932 65 NA NA NOT_NAMED 1932-10-20 09:00:00 TS 35.9797 -38.8154 main 1676 1676 P_____________ AL131932 35.9797 -38.8154 TS 42 0 13 86
1932292N26318 1932 65 NA NA NOT_NAMED 1932-10-20 12:00:00 TS 36.0000 -38.0000 40 hurdat_atl main 1724 1724 O_____________ hurdat_atl AL131932 36.0000 -38.0000 TS 40 0 13 92
1932292N26318 1932 65 NA NA NOT_NAMED 1932-10-20 15:00:00 TS 35.9447 -37.1851 main 1781 1781 P_____________ AL131932 35.9447 -37.1851 TS 37 0 13 99
1932292N26318 1932 65 NA NA NOT_NAMED 1932-10-20 18:00:00 TS 35.8000 -36.4000 35 hurdat_atl main 1838 1838 O_____________ hurdat_atl AL131932 35.8000 -36.4000 TS 35 0 13 107
1932292N26318 1932 65 NA NA NOT_NAMED 1932-10-20 21:00:00 TS 35.5731 -35.6791 main 1898 1882 P_____________ AL131932 35.5731 -35.6791 TS 32 -1 12 114
1932292N26318 1932 65 NA NA NOT_NAMED 1932-10-21 00:00:00 TS 35.3000 -35.0000 30 hurdat_atl main 1882 O_____________ hurdat_atl AL131932 35.3000 -35.0000 TD 30 -1 12 116

About IBTrACS Database

This database is a web-friendly format of International Best Track Archive for Climate Stewardship (IBTrACS), a global best track data archive curated by NOAA dating back to 1842.

Updated: 2021-11-26